createdAt,value
2022-11-18T00:01:10.055Z,10.82
2022-11-18T00:03:37.920Z,10.00
2022-11-18T00:06:05.834Z,9.13
2022-11-18T00:08:32.614Z,13.85
2022-11-18T00:11:04.324Z,11.30
2022-11-18T00:13:49.848Z,10.40
2022-11-18T00:16:16.556Z,10.30
2022-11-18T00:18:43.273Z,10.15
2022-11-18T00:21:12.219Z,11.23
2022-11-18T00:23:40.061Z,14.05
2022-11-18T00:26:14.567Z,11.02
2022-11-18T00:28:41.817Z,11.98
2022-11-18T00:31:13.371Z,14.57
2022-11-18T00:33:40.885Z,20.30
2022-11-18T00:36:10.448Z,18.42
2022-11-18T00:38:37.466Z,20.98
2022-11-18T00:41:07.105Z,19.02
2022-11-18T00:43:34.568Z,22.08
2022-11-18T00:46:02.137Z,27.33
2022-11-18T00:48:29.538Z,27.40
2022-11-18T00:50:58.901Z,23.15
2022-11-18T00:53:26.939Z,26.95
2022-11-18T00:55:53.705Z,24.38
2022-11-18T00:58:20.458Z,20.35
2022-11-18T01:00:51.289Z,16.65
2022-11-18T01:03:18.618Z,21.52
2022-11-18T01:05:45.382Z,21.48
2022-11-18T01:08:13.750Z,14.25
2022-11-18T01:10:41.059Z,14.55
2022-11-18T01:13:22.424Z,17.65
2022-11-18T01:15:57.578Z,16.30
2022-11-18T01:18:26.863Z,20.65
2022-11-18T01:20:54.116Z,17.00
2022-11-18T01:23:21.401Z,18.95
2022-11-18T01:25:49.538Z,13.68
2022-11-18T01:28:23.031Z,11.52
2022-11-18T01:30:50.741Z,12.38
2022-11-18T01:33:17.556Z,13.07
2022-11-18T01:35:45.009Z,12.95
2022-11-18T01:38:14.126Z,11.52
2022-11-18T01:40:41.729Z,14.27
2022-11-18T01:43:20.814Z,13.45
2022-11-18T01:45:53.907Z,11.95
2022-11-18T01:48:30.063Z,11.68
2022-11-18T01:51:14.025Z,11.50
2022-11-18T01:53:45.868Z,12.93
2022-11-18T01:56:23.713Z,13.25
2022-11-18T01:58:56.190Z,12.55
2022-11-18T02:01:23.545Z,12.73
2022-11-18T02:03:51.702Z,11.18
2022-11-18T02:06:18.683Z,12.85
2022-11-18T02:08:45.687Z,15.40
2022-11-18T02:11:33.463Z,11.80
2022-11-18T02:14:03.692Z,16.13
2022-11-18T02:16:35.682Z,12.85
2022-11-18T02:19:12.574Z,11.13
2022-11-18T02:22:10.306Z,10.82
2022-11-18T02:24:51.814Z,11.85
2022-11-18T02:27:24.655Z,12.75
2022-11-18T02:30:03.165Z,18.02
2022-11-18T02:32:33.902Z,13.90
2022-11-18T02:35:20.028Z,10.98
2022-11-18T02:38:08.931Z,11.25
2022-11-18T02:40:44.067Z,15.88
2022-11-18T02:43:20.023Z,14.30
2022-11-18T02:48:17.788Z,15.35
2022-11-18T02:50:46.877Z,14.45
2022-11-18T02:53:16.651Z,10.10
2022-11-18T02:55:44.346Z,10.98
2022-11-18T02:58:13.346Z,11.52
2022-11-18T03:00:40.243Z,10.52
2022-11-18T03:03:28.693Z,13.32
2022-11-18T03:06:21.536Z,14.05
2022-11-18T03:08:58.654Z,12.85
2022-11-18T03:11:29.507Z,13.40
2022-11-18T03:14:28.855Z,10.05
2022-11-18T03:17:28.311Z,11.77
2022-11-18T03:20:20.173Z,9.85
2022-11-18T03:23:15.741Z,12.07
2022-11-18T03:25:48.789Z,13.98
2022-11-18T03:28:30.423Z,8.93
2022-11-18T03:31:08.482Z,9.43
2022-11-18T03:33:40.899Z,9.80
2022-11-18T03:36:11.095Z,9.65
2022-11-18T03:38:42.092Z,11.27
2022-11-18T03:41:11.819Z,9.95
2022-11-18T03:43:45.035Z,9.98
2022-11-18T03:46:39.396Z,12.52
2022-11-18T03:49:10.332Z,7.60
2022-11-18T03:51:42.341Z,8.43
2022-11-18T03:54:15.575Z,7.60
2022-11-18T03:56:48.041Z,6.93
2022-11-18T03:59:22.281Z,8.68
2022-11-18T04:01:59.819Z,8.52
2022-11-18T04:04:27.654Z,10.82
2022-11-18T04:07:14.715Z,8.50
2022-11-18T04:09:56.191Z,8.75
2022-11-18T04:12:25.465Z,11.15
2022-11-18T04:14:55.446Z,12.18
2022-11-18T04:17:26.577Z,12.68
2022-11-18T04:19:53.659Z,11.10
2022-11-18T04:22:21.632Z,10.45
2022-11-18T04:24:48.418Z,10.55
2022-11-18T04:27:15.183Z,9.18
2022-11-18T04:29:41.890Z,9.48
2022-11-18T04:32:08.734Z,9.70
2022-11-18T04:34:35.466Z,9.32
2022-11-18T04:37:02.279Z,9.77
2022-11-18T04:39:29.246Z,9.63
2022-11-18T04:41:56.134Z,10.27
2022-11-18T04:44:27.370Z,8.07
2022-11-18T04:46:55.210Z,8.73
2022-11-18T04:49:22.965Z,10.70
2022-11-18T04:51:50.254Z,13.52
2022-11-18T04:54:17.666Z,13.10
2022-11-18T04:56:48.978Z,10.18
2022-11-18T04:59:19.669Z,12.80
2022-11-18T05:01:47.051Z,11.35
2022-11-18T05:04:16.314Z,14.35
2022-11-18T05:06:43.304Z,11.70
2022-11-18T05:09:10.658Z,10.48
2022-11-18T05:11:56.004Z,12.55
2022-11-18T05:14:29.019Z,10.88
2022-11-18T05:16:57.155Z,10.85
2022-11-18T05:19:24.210Z,10.10
2022-11-18T05:21:51.280Z,12.57
2022-11-18T05:24:18.219Z,9.93
2022-11-18T05:26:45.519Z,12.90
2022-11-18T05:29:13.051Z,9.68
2022-11-18T05:31:39.816Z,12.23
2022-11-18T05:34:06.600Z,10.02
2022-11-18T05:36:33.305Z,10.82
2022-11-18T05:39:00.384Z,14.25
2022-11-18T05:41:46.054Z,14.18
2022-11-18T05:44:13.228Z,13.75
2022-11-18T05:46:40.005Z,13.93
2022-11-18T05:49:07.676Z,13.68
2022-11-18T05:51:35.517Z,12.65
2022-11-18T05:54:08.933Z,15.20
2022-11-18T05:56:45.550Z,11.85
2022-11-18T05:59:13.853Z,11.68
2022-11-18T06:01:48.430Z,13.38
2022-11-18T06:04:42.133Z,10.05
2022-11-18T06:07:26.655Z,10.25
2022-11-18T06:10:04.809Z,13.05
2022-11-18T06:12:38.735Z,12.38
2022-11-18T06:15:13.413Z,15.52
2022-11-18T06:17:45.856Z,14.23
2022-11-18T06:20:12.689Z,17.20
2022-11-18T06:22:45.012Z,11.25
2022-11-18T06:25:13.551Z,14.73
2022-11-18T06:27:40.825Z,12.38
2022-11-18T06:30:08.279Z,12.65
2022-11-18T06:32:35.056Z,12.15
2022-11-18T06:35:01.818Z,14.43
2022-11-18T06:37:28.834Z,14.98
2022-11-18T06:39:55.585Z,11.82
2022-11-18T06:42:40.904Z,12.52
2022-11-18T06:45:08.333Z,13.48
2022-11-18T06:47:35.115Z,11.75
2022-11-18T06:50:01.930Z,18.92
2022-11-18T06:52:28.772Z,16.02
2022-11-18T06:54:55.506Z,16.65
2022-11-18T06:57:22.253Z,15.23
2022-11-18T06:59:49.023Z,12.15
2022-11-18T07:02:18.775Z,11.55
2022-11-18T07:04:46.036Z,20.60
2022-11-18T07:07:13.048Z,16.98
2022-11-18T07:09:39.849Z,17.83
2022-11-18T07:12:06.722Z,16.67
2022-11-18T07:14:33.609Z,23.42
2022-11-18T07:17:00.419Z,22.95
2022-11-18T07:19:30.181Z,20.00
2022-11-18T07:22:01.202Z,19.50
2022-11-18T07:24:27.954Z,17.60
2022-11-18T07:26:54.687Z,19.10
2022-11-18T07:29:21.459Z,17.75
2022-11-18T07:31:48.218Z,17.20
2022-11-18T07:34:15.106Z,19.17
2022-11-18T07:36:41.893Z,21.02
2022-11-18T07:39:09.004Z,17.55
2022-11-18T07:41:36.156Z,24.35
2022-11-18T07:44:04.468Z,18.13
2022-11-18T07:46:36.553Z,24.38
2022-11-18T07:49:06.026Z,19.15
2022-11-18T07:51:38.982Z,17.83
2022-11-18T07:54:10.797Z,17.17
2022-11-18T07:56:38.199Z,19.90
2022-11-18T07:59:05.167Z,20.30
2022-11-18T08:01:32.140Z,20.65
2022-11-18T08:04:05.608Z,26.67
2022-11-18T08:06:36.306Z,21.67
2022-11-18T08:09:04.739Z,20.05
2022-11-18T08:11:31.534Z,16.85
2022-11-18T08:13:58.335Z,16.73
2022-11-18T08:16:26.183Z,11.70
2022-11-18T08:18:53.350Z,13.57
2022-11-18T08:21:21.951Z,18.70
2022-11-18T08:23:55.745Z,17.40
2022-11-18T08:26:23.083Z,19.92
2022-11-18T08:28:50.155Z,23.08
2022-11-18T08:31:19.553Z,23.25
2022-11-18T08:33:46.822Z,28.88
2022-11-18T08:36:17.252Z,29.83
2022-11-18T08:38:44.728Z,28.45
2022-11-18T08:41:17.638Z,34.47
2022-11-18T08:43:44.577Z,36.53
2022-11-18T08:46:11.332Z,36.83
2022-11-18T08:48:38.162Z,42.10
2022-11-18T08:51:05.397Z,38.92
2022-11-18T08:53:32.939Z,46.75
2022-11-18T08:56:01.411Z,62.72
2022-11-18T08:58:28.866Z,55.75
2022-11-18T09:00:55.646Z,44.83
2022-11-18T09:03:23.175Z,53.42
2022-11-18T09:05:50.325Z,42.50
2022-11-18T09:08:17.064Z,41.50
2022-11-18T09:10:43.928Z,35.55
2022-11-18T09:13:42.521Z,34.30
2022-11-18T09:16:01.807Z,39.38
2022-11-18T09:18:29.196Z,28.95
2022-11-18T09:21:04.941Z,26.63
2022-11-18T09:23:33.210Z,28.38
2022-11-18T09:26:09.054Z,21.63
2022-11-18T09:28:35.900Z,23.10
2022-11-18T09:31:11.606Z,26.02
2022-11-18T09:33:38.809Z,26.85
2022-11-18T09:36:11.507Z,31.45
2022-11-18T09:38:38.428Z,32.90
2022-11-18T09:41:06.973Z,37.22
2022-11-18T09:44:07.735Z,32.75
2022-11-18T09:46:40.493Z,35.47
2022-11-18T09:49:30.907Z,32.33
2022-11-18T09:52:01.623Z,31.15
2022-11-18T09:54:33.870Z,25.77
2022-11-18T09:57:01.532Z,31.30
2022-11-18T09:59:31.647Z,28.30
2022-11-18T10:02:24.685Z,33.13
2022-11-18T10:04:54.507Z,27.92
2022-11-18T10:07:32.261Z,31.40
2022-11-18T10:10:08.029Z,23.08
2022-11-18T10:12:52.256Z,22.77
2022-11-18T10:15:25.188Z,19.83
2022-11-18T10:18:00.689Z,19.83
2022-11-18T10:20:49.548Z,23.42
2022-11-18T10:23:27.053Z,34.80
2022-11-18T10:25:54.644Z,22.65
2022-11-18T10:28:29.516Z,29.60
2022-11-18T10:31:08.179Z,24.55
2022-11-18T10:33:35.351Z,26.30
2022-11-18T10:36:17.062Z,22.67
2022-11-18T10:38:49.717Z,26.33
2022-11-18T10:41:20.648Z,28.48
2022-11-18T10:43:53.336Z,26.88
2022-11-18T10:46:30.108Z,23.30
2022-11-18T10:49:09.010Z,29.58
2022-11-18T10:52:12.413Z,26.80
2022-11-18T10:54:39.861Z,25.63
2022-11-18T10:57:35.024Z,27.75
2022-11-18T11:00:02.084Z,22.88
2022-11-18T11:02:41.429Z,22.67
2022-11-18T11:05:21.730Z,25.15
2022-11-18T11:08:36.248Z,21.70
2022-11-18T11:11:04.383Z,31.75
2022-11-18T11:13:32.554Z,27.75
2022-11-18T11:16:03.428Z,25.17
2022-11-18T11:18:43.410Z,24.42
2022-11-18T11:21:18.611Z,21.92
2022-11-18T11:23:46.859Z,25.75
2022-11-18T11:29:30.098Z,19.77
2022-11-18T11:32:15.605Z,19.00
2022-11-18T11:34:42.339Z,21.60
2022-11-18T11:37:24.850Z,19.73
2022-11-18T11:40:23.739Z,20.50
2022-11-18T11:43:28.573Z,24.23
2022-11-18T11:46:33.082Z,19.92
2022-11-18T11:49:06.429Z,21.05
2022-11-18T11:51:48.060Z,25.02
2022-11-18T11:54:31.146Z,22.65
2022-11-18T11:57:30.245Z,22.08
2022-11-18T12:00:23.543Z,21.15
2022-11-18T12:03:26.915Z,19.65
2022-11-18T12:05:53.660Z,19.92
2022-11-18T12:08:31.283Z,18.30
2022-11-18T12:11:14.009Z,21.77
2022-11-18T12:13:52.929Z,21.42
2022-11-18T12:16:25.925Z,18.65
2022-11-18T12:19:01.910Z,24.63
2022-11-18T12:24:31.568Z,27.85
2022-11-18T12:27:10.605Z,20.70
2022-11-18T12:29:50.586Z,20.23
2022-11-18T12:32:46.697Z,21.83
2022-11-18T12:35:13.562Z,22.98
2022-11-18T12:37:52.948Z,21.50
2022-11-18T12:40:39.426Z,21.75
2022-11-18T12:46:30.221Z,29.25
2022-11-18T12:48:57.253Z,24.88
2022-11-18T12:51:27.041Z,24.60
2022-11-18T12:53:54.180Z,24.90
2022-11-18T12:56:27.710Z,31.67
2022-11-18T12:59:00.202Z,24.38
2022-11-18T13:01:34.436Z,25.83
2022-11-18T13:04:22.304Z,23.80
2022-11-18T13:06:51.164Z,26.25
2022-11-18T13:09:27.627Z,21.30
2022-11-18T13:12:00.310Z,25.80
2022-11-18T13:15:01.708Z,22.30
2022-11-18T13:17:52.068Z,23.08
2022-11-18T13:20:23.215Z,22.30
2022-11-18T13:23:14.291Z,23.88
2022-11-18T13:25:42.646Z,21.60
2022-11-18T13:28:21.184Z,24.67
2022-11-18T13:31:23.254Z,26.83
2022-11-18T13:33:51.949Z,24.80
2022-11-18T13:36:22.059Z,28.60
2022-11-18T13:39:00.275Z,27.88
2022-11-18T13:41:34.697Z,24.10
2022-11-18T13:44:24.220Z,26.55
2022-11-18T13:47:15.646Z,21.67
2022-11-18T13:49:50.796Z,32.78
2022-11-18T13:52:27.543Z,32.80
2022-11-18T13:54:56.021Z,32.33
2022-11-18T13:57:25.105Z,35.40
2022-11-18T13:59:54.900Z,30.85
2022-11-18T14:02:22.163Z,32.38
2022-11-18T14:04:56.262Z,33.38
2022-11-18T14:07:32.408Z,36.42
2022-11-18T14:10:01.154Z,34.55
2022-11-18T14:12:32.609Z,33.90
2022-11-18T14:15:22.910Z,28.52
2022-11-18T14:18:00.865Z,31.55
2022-11-18T14:20:29.979Z,31.17
2022-11-18T14:23:02.110Z,38.03
2022-11-18T14:25:34.719Z,31.23
2022-11-18T14:28:20.684Z,26.75
2022-11-18T14:31:17.382Z,33.97
2022-11-18T14:34:24.596Z,32.45
2022-11-18T14:36:52.497Z,26.40
2022-11-18T14:39:26.815Z,31.92
2022-11-18T14:41:54.691Z,37.00
2022-11-18T14:44:24.335Z,33.90
2022-11-18T14:47:11.114Z,33.38
2022-11-18T14:49:38.006Z,29.98
2022-11-18T14:52:04.811Z,29.33
2022-11-18T14:54:31.711Z,33.42
2022-11-18T14:57:02.118Z,30.75
2022-11-18T14:59:28.899Z,23.85
2022-11-18T15:01:56.700Z,25.85
2022-11-18T15:04:23.883Z,27.27
2022-11-18T15:06:50.656Z,27.67
2022-11-18T15:09:17.439Z,25.60
2022-11-18T15:11:44.804Z,22.65
2022-11-18T15:14:11.727Z,26.52
2022-11-18T15:16:38.725Z,25.35
2022-11-18T15:19:06.463Z,25.88
2022-11-18T15:21:33.950Z,29.33
2022-11-18T15:24:00.738Z,29.52
2022-11-18T15:26:37.242Z,28.13
2022-11-18T15:29:04.636Z,24.27
2022-11-18T15:31:31.490Z,27.10
2022-11-18T15:34:03.464Z,23.50
2022-11-18T15:36:33.287Z,24.42
2022-11-18T15:39:02.579Z,29.75
2022-11-18T15:41:31.229Z,32.60
2022-11-18T15:44:00.120Z,29.63
2022-11-18T15:46:28.198Z,24.88
2022-11-18T15:48:56.536Z,31.35
2022-11-18T15:51:24.867Z,29.85
2022-11-18T15:53:51.757Z,28.50
2022-11-18T15:56:21.463Z,30.27
2022-11-18T15:58:57.329Z,27.73
2022-11-18T16:03:51.645Z,29.92
2022-11-18T16:06:18.499Z,26.80
2022-11-18T16:08:45.319Z,34.45
2022-11-18T16:11:32.958Z,25.08
2022-11-18T16:14:03.939Z,24.88
2022-11-18T16:16:31.654Z,29.05
2022-11-18T16:19:03.250Z,28.33
2022-11-18T16:21:33.474Z,18.95
2022-11-18T16:24:01.832Z,27.63
2022-11-18T16:26:30.877Z,26.35
2022-11-18T16:28:58.344Z,26.52
2022-11-18T16:31:40.968Z,27.52
2022-11-18T16:34:07.701Z,24.50
2022-11-18T16:36:34.928Z,26.77
2022-11-18T16:39:06.447Z,24.05
2022-11-18T16:41:33.264Z,24.13
2022-11-18T16:44:03.474Z,22.98
2022-11-18T16:46:32.053Z,25.45
2022-11-18T16:48:59.634Z,27.88
2022-11-18T16:51:28.936Z,22.92
2022-11-18T16:54:05.949Z,23.70
2022-11-18T16:56:36.019Z,25.33
2022-11-18T16:59:06.489Z,29.67
2022-11-18T17:01:34.191Z,31.30
2022-11-18T17:04:01.232Z,26.17
2022-11-18T17:06:30.077Z,25.33
2022-11-18T17:08:58.501Z,27.10
2022-11-18T17:11:25.734Z,25.33
2022-11-18T17:13:58.085Z,24.73
2022-11-18T17:16:26.226Z,25.08
2022-11-18T17:18:58.222Z,27.15
2022-11-18T17:21:26.262Z,28.23
2022-11-18T17:23:53.749Z,29.38
2022-11-18T17:26:22.955Z,31.08
2022-11-18T17:28:50.175Z,32.53
2022-11-18T17:31:19.640Z,27.70
2022-11-18T17:33:47.724Z,33.17
2022-11-18T17:36:17.448Z,33.30
2022-11-18T17:38:46.035Z,30.52
2022-11-18T17:41:35.343Z,34.63
2022-11-18T17:44:03.843Z,28.10
2022-11-18T17:46:37.584Z,31.80
2022-11-18T17:49:07.644Z,42.42
2022-11-18T17:51:34.493Z,31.88
2022-11-18T17:54:01.316Z,30.65
2022-11-18T17:56:28.151Z,33.47
2022-11-18T17:58:55.678Z,30.05
2022-11-18T18:01:23.495Z,31.73
2022-11-18T18:03:50.403Z,36.30
2022-11-18T18:06:18.928Z,33.55
2022-11-18T18:08:45.677Z,38.47
2022-11-18T18:11:14.834Z,34.78
2022-11-18T18:14:01.223Z,36.75
2022-11-18T18:18:57.623Z,31.58
2022-11-18T18:21:24.446Z,32.35
2022-11-18T18:23:51.305Z,32.20
2022-11-18T18:26:18.480Z,35.25
2022-11-18T18:28:45.355Z,33.80
2022-11-18T18:31:13.846Z,33.63
2022-11-18T18:33:40.726Z,38.53
2022-11-18T18:36:10.079Z,28.70
2022-11-18T18:38:38.707Z,34.25
2022-11-18T18:41:08.660Z,33.20
2022-11-18T18:43:35.591Z,36.17
2022-11-18T18:46:28.496Z,37.63
2022-11-18T18:49:25.172Z,35.13
2022-11-18T18:51:55.549Z,38.03
2022-11-18T18:54:22.578Z,27.55
2022-11-18T18:56:49.533Z,32.60
2022-11-18T18:59:16.339Z,39.70
2022-11-18T19:01:43.177Z,31.60
2022-11-18T19:04:13.975Z,31.00
2022-11-18T19:07:00.448Z,29.20
2022-11-18T19:09:28.051Z,30.10
2022-11-18T19:12:13.619Z,29.73
2022-11-18T19:14:40.691Z,21.40
2022-11-18T19:17:11.395Z,23.55
2022-11-18T19:19:58.713Z,28.58
2022-11-18T19:22:25.583Z,27.67
2022-11-18T19:24:53.257Z,24.23
2022-11-18T19:27:20.582Z,27.55
2022-11-18T19:29:47.522Z,30.65
2022-11-18T19:32:14.949Z,28.27
2022-11-18T19:34:41.954Z,36.50
2022-11-18T19:37:09.069Z,33.15
2022-11-18T19:39:37.884Z,33.20
2022-11-18T19:42:04.972Z,26.45
2022-11-18T19:44:31.721Z,28.35
2022-11-18T19:46:59.166Z,35.03
2022-11-18T19:49:25.980Z,29.45
2022-11-18T19:51:52.718Z,33.88
2022-11-18T19:54:19.451Z,33.88
2022-11-18T19:56:46.236Z,34.38
2022-11-18T19:59:13.298Z,31.63
2022-11-18T20:01:40.926Z,34.53
2022-11-18T20:04:07.802Z,44.58
2022-11-18T20:06:35.807Z,47.20
2022-11-18T20:09:05.991Z,42.42
2022-11-18T20:11:32.761Z,50.55
2022-11-18T20:13:59.610Z,40.13
2022-11-18T20:16:26.390Z,51.58
2022-11-18T20:18:58.827Z,47.00
2022-11-18T20:21:27.083Z,39.83
2022-11-18T20:23:59.107Z,46.65
2022-11-18T20:26:45.678Z,47.10
2022-11-18T20:29:12.819Z,48.30
2022-11-18T20:31:39.717Z,48.95
2022-11-18T20:34:06.626Z,55.10
2022-11-18T20:36:36.336Z,55.55
2022-11-18T20:39:11.169Z,50.47
2022-11-18T20:41:37.997Z,52.60
2022-11-18T20:44:05.252Z,50.58
2022-11-18T20:46:34.320Z,54.25
2022-11-18T20:49:01.659Z,37.10
2022-11-18T20:51:29.404Z,45.08
2022-11-18T20:53:58.074Z,44.67
2022-11-18T20:56:26.914Z,39.58
2022-11-18T20:58:53.927Z,51.25
2022-11-18T21:01:23.181Z,47.08
2022-11-18T21:03:55.092Z,52.85
2022-11-18T21:06:24.090Z,38.85
2022-11-18T21:08:57.837Z,39.03
2022-11-18T21:11:25.692Z,48.60
2022-11-18T21:14:11.016Z,43.90
2022-11-18T21:16:37.825Z,40.53
2022-11-18T21:19:07.204Z,42.92
2022-11-18T21:21:46.029Z,41.92
2022-11-18T21:24:15.081Z,52.33
2022-11-18T21:26:42.269Z,49.47
2022-11-18T21:29:11.400Z,55.15
2022-11-18T21:31:38.739Z,47.10
2022-11-18T21:34:06.084Z,50.03
2022-11-18T21:36:33.248Z,51.80
2022-11-18T21:39:01.034Z,49.92
2022-11-18T21:41:29.292Z,56.15
2022-11-18T21:44:05.989Z,56.97
2022-11-18T21:46:35.452Z,61.35
2022-11-18T21:49:03.244Z,53.92
2022-11-18T21:51:32.051Z,55.25
2022-11-18T21:53:59.481Z,56.95
2022-11-18T21:56:31.113Z,58.30
2022-11-18T21:59:00.045Z,46.22
2022-11-18T22:01:30.113Z,48.33
2022-11-18T22:03:59.236Z,52.95
2022-11-18T22:06:29.802Z,55.72
2022-11-18T22:08:56.672Z,51.28
2022-11-18T22:11:25.672Z,56.08
2022-11-18T22:13:53.222Z,47.03
2022-11-18T22:16:22.577Z,53.03
2022-11-18T22:18:56.505Z,48.33
2022-11-18T22:21:28.706Z,55.30
2022-11-18T22:24:00.157Z,47.95
2022-11-18T22:26:27.958Z,54.35
2022-11-18T22:28:56.905Z,53.90
2022-11-18T22:31:25.368Z,45.45
2022-11-18T22:33:52.828Z,52.33
2022-11-18T22:36:21.610Z,54.38
2022-11-18T22:38:49.051Z,54.70
2022-11-18T22:41:41.499Z,52.95
2022-11-18T22:44:09.158Z,52.85
2022-11-18T22:46:37.158Z,39.97
2022-11-18T22:49:05.258Z,47.75
2022-11-18T22:51:32.574Z,38.67
2022-11-18T22:54:30.774Z,46.13
2022-11-18T22:56:46.464Z,46.67
2022-11-18T22:59:13.603Z,47.22
2022-11-18T23:01:40.526Z,40.15
2022-11-18T23:04:07.524Z,42.70
2022-11-18T23:06:34.421Z,46.65
2022-11-18T23:09:01.331Z,42.25
2022-11-18T23:11:47.090Z,41.83
2022-11-18T23:14:13.922Z,43.72
2022-11-18T23:16:42.916Z,42.60
2022-11-18T23:19:15.691Z,42.67
2022-11-18T23:21:44.183Z,44.63
2022-11-18T23:24:12.607Z,49.58
2022-11-18T23:26:39.656Z,49.22
2022-11-18T23:29:06.493Z,46.88
2022-11-18T23:31:33.274Z,39.42
2022-11-18T23:34:00.266Z,36.63
2022-11-18T23:36:27.941Z,42.72
2022-11-18T23:38:54.734Z,39.55
2022-11-18T23:41:21.998Z,42.40
2022-11-18T23:43:49.329Z,43.03
2022-11-18T23:46:17.265Z,33.25
2022-11-18T23:48:45.197Z,43.80
2022-11-18T23:51:15.185Z,33.85
2022-11-18T23:53:42.881Z,40.08
2022-11-18T23:56:15.565Z,35.00
2022-11-18T23:58:47.714Z,42.53
